createdAt,value
2023-04-09T00:00:50.477Z,10.40
2023-04-09T00:02:52.358Z,11.75
2023-04-09T00:04:54.329Z,12.68
2023-04-09T00:06:56.149Z,12.20
2023-04-09T00:08:58.149Z,11.90
2023-04-09T00:11:00.533Z,12.68
2023-04-09T00:13:02.455Z,12.30
2023-04-09T00:15:04.641Z,13.82
2023-04-09T00:17:06.565Z,12.10
2023-04-09T00:19:08.430Z,12.77
2023-04-09T00:21:10.317Z,12.77
2023-04-09T00:23:13.076Z,11.93
2023-04-09T00:25:16.022Z,11.95
2023-04-09T00:27:17.874Z,11.20
2023-04-09T00:29:19.824Z,12.13
2023-04-09T00:31:21.750Z,12.35
2023-04-09T00:33:23.869Z,13.23
2023-04-09T00:37:27.877Z,12.43
2023-04-09T00:39:29.936Z,12.13
2023-04-09T00:43:34.661Z,12.27
2023-04-09T00:45:36.622Z,12.60
2023-04-09T00:49:40.933Z,12.43
2023-04-09T00:51:44.108Z,11.52
2023-04-09T00:53:47.876Z,12.35
2023-04-09T00:55:49.752Z,14.27
2023-04-09T00:57:51.632Z,12.55
2023-04-09T00:59:53.526Z,13.90
2023-04-09T01:01:55.827Z,12.10
2023-04-09T01:03:58.106Z,11.65
2023-04-09T01:06:23.653Z,11.75
2023-04-09T01:08:55.017Z,11.27
2023-04-09T01:11:23.525Z,11.77
2023-04-09T01:13:46.366Z,11.30
2023-04-09T01:15:59.391Z,11.82
2023-04-09T01:18:07.513Z,12.50
2023-04-09T01:20:22.578Z,11.13
2023-04-09T01:22:46.374Z,12.55
2023-04-09T01:25:04.868Z,13.95
2023-04-09T01:27:08.363Z,13.07
2023-04-09T01:29:11.286Z,13.00
2023-04-09T01:31:17.320Z,12.88
2023-04-09T01:33:20.821Z,12.38
2023-04-09T01:35:23.227Z,13.90
2023-04-09T01:37:26.322Z,14.63
2023-04-09T01:39:28.729Z,14.57
2023-04-09T01:41:33.496Z,14.85
2023-04-09T01:43:36.860Z,16.13
2023-04-09T01:45:39.591Z,17.33
2023-04-09T01:47:41.854Z,17.17
2023-04-09T01:49:44.892Z,17.05
2023-04-09T01:51:48.415Z,16.25
2023-04-09T01:53:50.760Z,15.15
2023-04-09T01:55:52.708Z,15.93
2023-04-09T01:57:54.599Z,16.25
2023-04-09T01:59:56.590Z,18.50
2023-04-09T02:02:05.472Z,19.27
2023-04-09T02:04:16.502Z,18.90
2023-04-09T02:06:48.537Z,19.90
2023-04-09T02:08:52.847Z,19.90
2023-04-09T02:10:58.949Z,19.73
2023-04-09T02:13:03.284Z,21.05
2023-04-09T02:15:07.396Z,21.10
2023-04-09T02:17:09.450Z,21.45
2023-04-09T02:21:13.924Z,18.88
2023-04-09T02:23:18.787Z,18.98
2023-04-09T02:25:21.514Z,19.42
2023-04-09T02:27:23.396Z,19.70
2023-04-09T02:29:25.247Z,20.83
2023-04-09T02:31:28.408Z,19.00
2023-04-09T02:33:30.528Z,18.30
2023-04-09T02:37:34.670Z,17.15
2023-04-09T02:39:36.512Z,16.80
2023-04-09T02:41:38.352Z,16.98
2023-04-09T02:43:40.225Z,18.13
2023-04-09T02:45:42.202Z,17.80
2023-04-09T02:47:44.264Z,19.38
2023-04-09T02:51:49.497Z,20.27
2023-04-09T02:53:51.379Z,20.40
2023-04-09T02:55:53.279Z,20.80
2023-04-09T02:57:55.156Z,20.48
2023-04-09T02:59:57.009Z,19.90
2023-04-09T03:01:58.949Z,20.90
2023-04-09T03:06:03.694Z,22.13
2023-04-09T03:08:05.830Z,21.98
2023-04-09T03:10:08.099Z,22.90
2023-04-09T03:12:09.927Z,23.27
2023-04-09T03:14:11.780Z,23.48
2023-04-09T03:16:13.874Z,23.60
2023-04-09T03:20:17.713Z,23.30
2023-04-09T03:22:19.682Z,22.75
2023-04-09T03:24:21.696Z,25.25
2023-04-09T03:28:25.326Z,24.80
2023-04-09T03:30:27.178Z,24.65
2023-04-09T03:32:29.185Z,24.67
2023-04-09T03:36:33.149Z,25.30
2023-04-09T03:40:36.902Z,25.80
2023-04-09T03:44:40.456Z,25.97
2023-04-09T03:46:42.464Z,28.17
2023-04-09T03:48:44.931Z,25.95
2023-04-09T03:50:47.101Z,28.58
2023-04-09T03:52:49.044Z,27.58
2023-04-09T03:54:50.886Z,28.35
2023-04-09T03:56:52.726Z,29.52
2023-04-09T03:58:54.984Z,31.25
2023-04-09T04:00:57.069Z,31.63
2023-04-09T04:02:59.098Z,31.80
2023-04-09T04:07:05.864Z,30.05
2023-04-09T04:09:07.693Z,32.28
2023-04-09T04:11:09.562Z,31.08
2023-04-09T04:13:11.518Z,29.90
2023-04-09T04:15:13.532Z,30.63
2023-04-09T04:19:17.434Z,29.23
2023-04-09T04:21:19.313Z,28.25
2023-04-09T04:23:21.225Z,31.88
2023-04-09T04:25:23.058Z,27.85
2023-04-09T04:27:24.902Z,30.60
2023-04-09T04:29:28.539Z,30.95
2023-04-09T04:31:30.527Z,28.90
2023-04-09T04:33:32.394Z,28.52
2023-04-09T04:35:34.259Z,29.02
2023-04-09T04:37:36.129Z,30.50
2023-04-09T04:39:38.044Z,30.02
2023-04-09T04:41:39.932Z,27.67
2023-04-09T04:43:41.749Z,26.70
2023-04-09T04:45:43.585Z,27.67
2023-04-09T04:47:45.840Z,26.67
2023-04-09T04:49:47.749Z,26.92
2023-04-09T04:51:49.648Z,29.23
2023-04-09T04:53:51.521Z,26.65
2023-04-09T04:55:53.842Z,26.65
2023-04-09T04:57:55.811Z,26.00
2023-04-09T04:59:57.747Z,25.63
2023-04-09T05:01:59.781Z,25.52
2023-04-09T05:06:05.354Z,23.02
2023-04-09T05:10:09.587Z,22.85
2023-04-09T05:12:11.521Z,23.13
2023-04-09T05:14:13.358Z,25.27
2023-04-09T05:16:19.700Z,25.42
2023-04-09T05:18:21.731Z,25.17
2023-04-09T05:20:23.611Z,30.52
2023-04-09T05:22:25.542Z,30.35
2023-04-09T05:24:27.457Z,26.63
2023-04-09T05:26:29.899Z,27.92
2023-04-09T05:28:33.234Z,28.75
2023-04-09T05:30:35.418Z,28.20
2023-04-09T05:32:37.541Z,29.20
2023-04-09T05:36:41.330Z,28.08
2023-04-09T05:42:47.785Z,29.90
2023-04-09T05:44:49.627Z,26.70
2023-04-09T05:46:51.492Z,26.58
2023-04-09T05:48:53.686Z,27.52
2023-04-09T05:50:56.058Z,30.45
2023-04-09T05:52:58.009Z,26.60
2023-04-09T05:54:59.935Z,27.90
2023-04-09T05:57:01.772Z,27.02
2023-04-09T05:59:03.592Z,27.70
2023-04-09T06:01:05.507Z,26.80
2023-04-09T06:03:07.470Z,25.13
2023-04-09T06:07:11.541Z,24.02
2023-04-09T06:11:15.652Z,26.30
2023-04-09T06:15:19.440Z,26.00
2023-04-09T06:17:21.451Z,27.00
2023-04-09T06:19:23.780Z,25.65
2023-04-09T06:21:25.596Z,30.30
2023-04-09T06:23:27.449Z,29.90
2023-04-09T06:25:29.327Z,30.17
2023-04-09T06:27:31.484Z,24.77
2023-04-09T06:29:33.580Z,22.25
2023-04-09T06:33:37.718Z,22.33
2023-04-09T06:35:39.595Z,21.98
2023-04-09T06:37:41.646Z,21.83
2023-04-09T06:42:04.024Z,23.35
2023-04-09T06:44:06.004Z,22.80
2023-04-09T06:46:08.989Z,23.83
2023-04-09T06:48:11.612Z,22.83
2023-04-09T06:50:13.628Z,23.27
2023-04-09T06:54:17.321Z,21.77
2023-04-09T06:56:19.207Z,21.98
2023-04-09T06:58:21.258Z,20.05
2023-04-09T07:00:23.224Z,21.70
2023-04-09T07:02:25.341Z,19.33
2023-04-09T07:04:27.533Z,19.13
2023-04-09T07:08:31.327Z,20.17
2023-04-09T07:10:33.169Z,20.70
2023-04-09T07:12:37.770Z,16.45
2023-04-09T07:14:39.773Z,17.40
2023-04-09T07:16:41.616Z,21.10
2023-04-09T07:18:43.619Z,24.77
2023-04-09T07:20:45.754Z,24.33
2023-04-09T07:24:58.797Z,20.38
2023-04-09T07:27:04.339Z,20.52
2023-04-09T07:29:06.328Z,21.23
2023-04-09T07:31:08.176Z,20.70
2023-04-09T07:33:10.412Z,18.55
2023-04-09T07:35:12.500Z,21.42
2023-04-09T07:37:14.371Z,16.98
2023-04-09T07:39:16.324Z,16.88
2023-04-09T07:41:18.245Z,15.80
2023-04-09T07:43:22.513Z,17.65
2023-04-09T07:45:24.601Z,16.17
2023-04-09T07:47:26.995Z,15.80
2023-04-09T07:49:28.962Z,16.15
2023-04-09T07:51:31.432Z,16.60
2023-04-09T07:53:33.265Z,17.05
2023-04-09T07:55:35.110Z,16.10
2023-04-09T07:57:37.113Z,19.00
2023-04-09T07:59:38.952Z,17.35
2023-04-09T08:01:41.246Z,17.70
2023-04-09T08:03:43.304Z,16.63
2023-04-09T08:07:47.449Z,16.13
2023-04-09T08:09:49.333Z,17.00
2023-04-09T08:11:51.544Z,16.30
2023-04-09T08:13:53.780Z,15.82
2023-04-09T08:15:55.824Z,15.80
2023-04-09T08:19:59.588Z,16.60
2023-04-09T08:22:01.977Z,15.82
2023-04-09T08:24:05.684Z,15.90
2023-04-09T08:26:07.583Z,15.00
2023-04-09T08:28:09.738Z,14.25
2023-04-09T08:30:12.148Z,16.63
2023-04-09T08:32:14.248Z,16.33
2023-04-09T08:34:17.559Z,16.10
2023-04-09T08:36:20.543Z,14.77
2023-04-09T08:38:22.498Z,15.90
2023-04-09T08:40:24.445Z,16.27
2023-04-09T08:42:26.978Z,14.68
2023-04-09T08:44:29.752Z,14.20
2023-04-09T08:46:31.669Z,13.65
2023-04-09T08:48:33.639Z,12.73
2023-04-09T08:52:38.412Z,14.05
2023-04-09T08:54:40.403Z,12.57
2023-04-09T08:56:42.336Z,12.73
2023-04-09T08:58:46.585Z,14.52
2023-04-09T09:00:48.430Z,16.05
2023-04-09T09:03:17.582Z,14.10
2023-04-09T09:05:36.539Z,13.80
2023-04-09T09:07:54.693Z,13.20
2023-04-09T09:10:03.320Z,12.18
2023-04-09T09:12:05.223Z,12.02
2023-04-09T09:14:07.061Z,13.27
2023-04-09T09:16:14.448Z,12.00
2023-04-09T09:18:17.547Z,11.18
2023-04-09T09:20:21.052Z,11.88
2023-04-09T09:22:22.925Z,11.15
2023-04-09T09:24:24.940Z,11.27
2023-04-09T09:26:29.337Z,12.57
2023-04-09T09:28:36.127Z,12.38
2023-04-09T09:30:39.944Z,12.75
2023-04-09T09:32:42.601Z,11.60
2023-04-09T09:34:58.644Z,12.27
2023-04-09T09:37:00.612Z,11.05
2023-04-09T09:39:03.865Z,11.70
2023-04-09T09:41:17.920Z,11.57
2023-04-09T09:43:19.864Z,11.38
2023-04-09T09:45:22.131Z,11.52
2023-04-09T09:47:25.360Z,10.80
2023-04-09T09:49:27.395Z,10.50
2023-04-09T09:51:31.364Z,9.43
2023-04-09T09:53:36.547Z,9.50
2023-04-09T09:55:40.559Z,10.85
2023-04-09T09:57:44.906Z,8.52
2023-04-09T10:00:14.141Z,8.65
2023-04-09T10:02:21.173Z,9.90
2023-04-09T10:04:25.256Z,10.55
2023-04-09T10:06:28.048Z,10.10
2023-04-09T10:08:33.468Z,9.55
2023-04-09T10:10:36.606Z,9.52
2023-04-09T10:12:41.816Z,9.73
2023-04-09T10:14:45.264Z,9.50
2023-04-09T10:16:47.277Z,10.23
2023-04-09T10:21:05.845Z,10.37
2023-04-09T10:23:32.662Z,10.57
2023-04-09T10:25:34.610Z,9.45
2023-04-09T10:27:37.025Z,9.23
2023-04-09T10:29:49.969Z,9.18
2023-04-09T10:32:03.243Z,10.05
2023-04-09T10:34:05.263Z,9.75
2023-04-09T10:36:12.365Z,9.85
2023-04-09T10:38:15.380Z,9.40
2023-04-09T10:40:21.817Z,9.30
2023-04-09T10:42:33.036Z,9.02
2023-04-09T10:44:36.114Z,9.13
2023-04-09T10:46:38.071Z,9.63
2023-04-09T10:48:40.061Z,9.38
2023-04-09T10:50:45.260Z,10.07
2023-04-09T10:52:51.785Z,8.38
2023-04-09T10:54:54.746Z,9.23
2023-04-09T10:57:26.496Z,7.30
2023-04-09T10:59:28.585Z,7.50
2023-04-09T11:03:40.328Z,8.98
2023-04-09T11:05:46.669Z,7.22
2023-04-09T11:07:54.610Z,8.10
2023-04-09T11:09:56.497Z,7.30
2023-04-09T11:11:58.631Z,8.07
2023-04-09T11:14:01.758Z,8.07
2023-04-09T11:16:07.132Z,7.47
2023-04-09T11:18:13.919Z,7.45
2023-04-09T11:20:21.563Z,7.13
2023-04-09T11:22:23.510Z,6.95
2023-04-09T11:24:27.094Z,6.53
2023-04-09T11:26:52.733Z,5.95
2023-04-09T11:28:58.435Z,7.57
2023-04-09T11:31:05.015Z,8.38
2023-04-09T11:33:08.611Z,6.82
2023-04-09T11:35:16.821Z,8.30
2023-04-09T11:37:19.162Z,7.63
2023-04-09T11:39:21.113Z,8.25
2023-04-09T11:41:38.462Z,8.77
2023-04-09T11:43:40.902Z,8.70
2023-04-09T11:45:43.289Z,8.85
2023-04-09T11:47:47.292Z,9.07
2023-04-09T11:49:49.323Z,8.13
2023-04-09T11:51:51.516Z,8.98
2023-04-09T11:53:53.946Z,9.55
2023-04-09T11:55:56.369Z,10.18
2023-04-09T11:58:01.358Z,9.40
2023-04-09T12:00:12.266Z,10.43
2023-04-09T12:02:18.921Z,9.13
2023-04-09T12:04:22.594Z,9.40
2023-04-09T12:06:27.436Z,10.55
2023-04-09T12:08:29.522Z,10.25
2023-04-09T12:12:42.092Z,8.75
2023-04-09T12:14:47.404Z,9.15
2023-04-09T12:16:52.791Z,9.23
2023-04-09T12:18:55.886Z,10.23
2023-04-09T12:20:57.786Z,9.15
2023-04-09T12:23:01.314Z,10.95
2023-04-09T12:25:03.245Z,11.63
2023-04-09T12:27:05.174Z,10.30
2023-04-09T12:29:07.027Z,10.68
2023-04-09T12:31:12.039Z,10.30
2023-04-09T12:33:13.978Z,10.40
2023-04-09T12:35:16.041Z,10.48
2023-04-09T12:39:20.994Z,10.97
2023-04-09T12:41:22.959Z,11.07
2023-04-09T12:43:24.910Z,10.88
2023-04-09T12:45:28.030Z,9.80
2023-04-09T12:47:29.997Z,9.68
2023-04-09T12:49:33.235Z,9.60
2023-04-09T12:51:35.507Z,9.43
2023-04-09T12:53:37.486Z,9.77
2023-04-09T12:55:42.221Z,9.30
2023-04-09T12:57:47.402Z,9.88
2023-04-09T12:59:49.302Z,9.68
2023-04-09T13:01:51.684Z,11.15
2023-04-09T13:03:53.944Z,9.75
2023-04-09T13:05:56.644Z,9.15
2023-04-09T13:07:58.866Z,10.75
2023-04-09T13:10:00.856Z,10.82
2023-04-09T13:12:02.919Z,10.75
2023-04-09T13:16:07.632Z,9.70
2023-04-09T13:18:09.986Z,10.68
2023-04-09T13:20:12.207Z,10.65
2023-04-09T13:24:17.203Z,10.27
2023-04-09T13:26:19.086Z,10.35
2023-04-09T13:28:20.964Z,11.93
2023-04-09T13:30:23.534Z,11.07
2023-04-09T13:32:25.608Z,12.82
2023-04-09T13:36:32.621Z,14.27
2023-04-09T13:38:34.447Z,14.07
2023-04-09T13:40:36.362Z,14.88
2023-04-09T13:42:38.536Z,15.25
2023-04-09T13:44:42.383Z,18.95
2023-04-09T13:46:44.559Z,16.95
2023-04-09T13:48:46.767Z,16.10
2023-04-09T13:50:48.751Z,15.80
2023-04-09T13:52:50.652Z,15.63
2023-04-09T13:54:53.387Z,15.40
2023-04-09T13:56:55.479Z,15.93
2023-04-09T14:00:59.558Z,17.55
2023-04-09T14:03:03.546Z,19.33
2023-04-09T14:05:06.142Z,19.77
2023-04-09T14:07:08.416Z,22.65
2023-04-09T14:09:10.928Z,23.45
2023-04-09T14:11:15.260Z,21.50
2023-04-09T14:13:17.211Z,22.85
2023-04-09T14:15:19.188Z,18.90
2023-04-09T14:17:21.136Z,18.67
2023-04-09T14:19:23.392Z,16.40
2023-04-09T14:21:26.916Z,14.90
2023-04-09T14:23:28.989Z,16.40
2023-04-09T14:25:30.960Z,15.45
2023-04-09T14:27:33.251Z,15.80
2023-04-09T14:29:35.400Z,16.92
2023-04-09T14:33:39.098Z,17.90
2023-04-09T14:35:41.104Z,15.05
2023-04-09T14:39:44.705Z,15.93
2023-04-09T14:41:46.609Z,16.38
2023-04-09T14:43:48.465Z,16.27
2023-04-09T14:45:50.638Z,17.58
2023-04-09T14:47:52.736Z,14.63
2023-04-09T14:51:56.587Z,12.93
2023-04-09T14:56:00.289Z,14.30
2023-04-09T14:58:04.725Z,15.45
2023-04-09T15:00:13.608Z,16.95
2023-04-09T15:02:15.670Z,17.75
2023-04-09T15:06:19.671Z,19.50
2023-04-09T15:10:23.518Z,17.73
2023-04-09T15:12:28.330Z,13.43
2023-04-09T15:14:31.325Z,12.88
2023-04-09T15:16:38.250Z,13.63
2023-04-09T15:18:40.562Z,12.57
2023-04-09T15:20:43.586Z,11.68
2023-04-09T15:22:45.604Z,11.43
2023-04-09T15:24:47.768Z,11.65
2023-04-09T15:28:53.682Z,12.98
2023-04-09T15:30:55.851Z,13.10
2023-04-09T15:32:58.136Z,14.15
2023-04-09T15:35:00.837Z,13.10
2023-04-09T15:37:02.800Z,13.88
2023-04-09T15:39:05.026Z,15.57
2023-04-09T15:41:06.925Z,10.70
2023-04-09T15:43:08.792Z,8.35
2023-04-09T15:45:11.029Z,8.88
2023-04-09T15:47:12.878Z,8.68
2023-04-09T15:49:14.897Z,9.18
2023-04-09T15:51:16.903Z,8.18
2023-04-09T15:53:19.736Z,8.90
2023-04-09T15:55:23.073Z,7.78
2023-04-09T15:57:25.082Z,6.90
2023-04-09T15:59:26.970Z,6.90
2023-04-09T16:01:28.915Z,6.97
2023-04-09T16:03:35.400Z,6.50
2023-04-09T16:05:37.282Z,8.18
2023-04-09T16:07:39.872Z,7.22
2023-04-09T16:09:41.792Z,7.20
2023-04-09T16:11:43.694Z,8.13
2023-04-09T16:13:46.220Z,7.25
2023-04-09T16:15:49.400Z,7.75
2023-04-09T16:17:51.340Z,7.10
2023-04-09T16:19:53.357Z,8.27
2023-04-09T16:21:55.291Z,8.63
2023-04-09T16:23:57.173Z,8.35
2023-04-09T16:25:59.288Z,8.07
2023-04-09T16:30:03.654Z,9.18
2023-04-09T16:32:06.304Z,8.98
2023-04-09T16:34:08.437Z,7.80
2023-04-09T16:36:10.490Z,6.30
2023-04-09T16:40:14.599Z,7.60
2023-04-09T16:42:16.698Z,9.25
2023-04-09T16:46:21.570Z,7.82
2023-04-09T16:50:26.319Z,8.32
2023-04-09T16:52:29.358Z,8.32
2023-04-09T16:54:31.214Z,9.27
2023-04-09T16:56:33.307Z,9.20
2023-04-09T17:00:37.182Z,8.03
2023-04-09T17:04:41.957Z,10.48
2023-04-09T17:06:43.894Z,11.70
2023-04-09T17:08:46.324Z,12.65
2023-04-09T17:10:48.147Z,12.93
2023-04-09T17:12:50.658Z,13.65
2023-04-09T17:14:52.539Z,13.48
2023-04-09T17:16:54.566Z,17.20
2023-04-09T17:20:59.376Z,22.25
2023-04-09T17:23:01.669Z,27.13
2023-04-09T17:25:04.797Z,29.83
2023-04-09T17:27:07.467Z,30.63
2023-04-09T17:29:09.395Z,30.50
2023-04-09T17:31:16.131Z,26.65
2023-04-09T17:33:18.232Z,23.60
2023-04-09T17:35:20.305Z,24.08
2023-04-09T17:39:25.610Z,16.53
2023-04-09T17:41:27.780Z,36.10
2023-04-09T17:43:29.665Z,29.20
2023-04-09T17:45:31.579Z,22.58
2023-04-09T17:47:33.609Z,18.88
2023-04-09T17:51:37.741Z,23.50
2023-04-09T17:53:39.612Z,24.67
2023-04-09T17:55:47.204Z,25.30
2023-04-09T17:57:49.256Z,28.50
2023-04-09T17:59:51.134Z,27.13
2023-04-09T18:01:55.086Z,25.08
2023-04-09T18:03:57.407Z,27.35
2023-04-09T18:06:00.698Z,27.90
2023-04-09T18:08:02.558Z,25.35
2023-04-09T18:10:05.574Z,22.77
2023-04-09T18:12:07.464Z,22.90
2023-04-09T18:14:09.780Z,18.88
2023-04-09T18:16:12.670Z,19.77
2023-04-09T18:18:14.941Z,24.40
2023-04-09T18:22:18.721Z,25.73
2023-04-09T18:24:20.974Z,26.13
2023-04-09T18:26:23.038Z,28.30
2023-04-09T18:30:26.756Z,28.97
2023-04-09T18:32:29.268Z,29.67
2023-04-09T18:34:31.521Z,32.20
2023-04-09T18:36:33.622Z,31.42
2023-04-09T18:40:43.814Z,26.40
2023-04-09T18:42:52.886Z,24.95
2023-04-09T18:44:54.830Z,25.10
2023-04-09T18:46:57.023Z,26.00
2023-04-09T18:48:59.089Z,25.65
2023-04-09T18:51:03.122Z,22.45
2023-04-09T18:53:06.071Z,21.50
2023-04-09T18:55:08.899Z,21.45
2023-04-09T18:57:11.310Z,21.35
2023-04-09T18:59:13.397Z,21.15
2023-04-09T19:03:18.279Z,24.92
2023-04-09T19:05:22.368Z,25.50
2023-04-09T19:07:24.427Z,26.27
2023-04-09T19:11:29.296Z,29.63
2023-04-09T19:15:33.111Z,24.55
2023-04-09T19:17:35.041Z,26.15
2023-04-09T19:19:37.329Z,22.45
2023-04-09T19:21:39.853Z,21.75
2023-04-09T19:23:41.742Z,21.83
2023-04-09T19:25:43.614Z,24.38
2023-04-09T19:27:46.195Z,24.33
2023-04-09T19:29:48.150Z,22.98
2023-04-09T19:31:50.454Z,23.52
2023-04-09T19:33:52.462Z,21.25
2023-04-09T19:35:56.571Z,21.60
2023-04-09T19:37:58.755Z,21.60
2023-04-09T19:40:06.783Z,22.65
2023-04-09T19:42:08.661Z,21.83
2023-04-09T19:44:10.624Z,22.90
2023-04-09T19:46:13.214Z,22.90
2023-04-09T19:48:15.958Z,22.30
2023-04-09T19:50:18.084Z,20.90
2023-04-09T19:52:20.439Z,20.88
2023-04-09T19:54:22.374Z,20.13
2023-04-09T19:56:25.315Z,20.48
2023-04-09T19:58:27.465Z,20.08
2023-04-09T20:02:32.004Z,19.10
2023-04-09T20:04:34.253Z,18.33
2023-04-09T20:08:38.249Z,17.70
2023-04-09T20:10:41.983Z,17.23
2023-04-09T20:12:47.724Z,17.55
2023-04-09T20:14:50.057Z,17.83
2023-04-09T20:16:51.989Z,18.88
2023-04-09T20:18:54.156Z,19.13
2023-04-09T20:20:56.214Z,20.38
2023-04-09T20:22:58.379Z,19.85
2023-04-09T20:25:00.835Z,19.73
2023-04-09T20:27:04.218Z,19.40
2023-04-09T20:29:07.500Z,20.38
2023-04-09T20:31:09.363Z,20.38
2023-04-09T20:33:11.735Z,21.33
2023-04-09T20:35:14.615Z,20.42
2023-04-09T20:37:16.576Z,18.73
2023-04-09T20:39:18.421Z,19.65
2023-04-09T20:41:20.349Z,20.90
2023-04-09T20:43:22.369Z,19.08
2023-04-09T20:45:24.214Z,17.50
2023-04-09T20:47:27.149Z,19.23
2023-04-09T20:49:29.128Z,18.70
2023-04-09T20:51:30.968Z,18.45
2023-04-09T20:53:32.957Z,18.83
2023-04-09T20:57:37.584Z,17.33
2023-04-09T20:59:39.445Z,18.17
2023-04-09T21:01:41.409Z,18.40
2023-04-09T21:03:43.478Z,19.05
2023-04-09T21:07:47.407Z,16.85
2023-04-09T21:09:49.523Z,17.45
2023-04-09T21:11:51.444Z,22.50
2023-04-09T21:13:55.311Z,20.65
2023-04-09T21:15:58.172Z,19.88
2023-04-09T21:18:00.211Z,20.00
2023-04-09T21:22:03.958Z,19.55
2023-04-09T21:24:06.017Z,26.50
2023-04-09T21:28:11.618Z,19.65
2023-04-09T21:30:13.499Z,18.48
2023-04-09T21:32:15.679Z,18.58
2023-04-09T21:34:17.603Z,20.25
2023-04-09T21:36:19.571Z,20.52
2023-04-09T21:40:23.899Z,20.60
2023-04-09T21:42:25.768Z,20.65
2023-04-09T21:44:27.653Z,19.48
2023-04-09T21:46:29.830Z,18.92
2023-04-09T21:48:31.764Z,19.25
2023-04-09T21:50:33.666Z,18.88
2023-04-09T21:52:35.628Z,17.30
2023-04-09T21:54:37.836Z,15.88
2023-04-09T21:56:39.931Z,15.77
2023-04-09T22:00:43.535Z,14.20
2023-04-09T22:02:46.311Z,16.67
2023-04-09T22:04:48.340Z,15.13
2023-04-09T22:06:50.613Z,16.20
2023-04-09T22:08:56.001Z,16.92
2023-04-09T22:10:58.407Z,15.93
2023-04-09T22:13:00.345Z,14.32
2023-04-09T22:15:03.852Z,14.93
2023-04-09T22:17:06.225Z,13.68
2023-04-09T22:19:08.600Z,13.98
2023-04-09T22:21:16.583Z,13.57
2023-04-09T22:23:18.450Z,13.10
2023-04-09T22:25:20.433Z,14.07
2023-04-09T22:27:22.341Z,13.00
2023-04-09T22:29:25.605Z,12.40
2023-04-09T22:31:27.889Z,12.88
2023-04-09T22:33:29.835Z,13.45
2023-04-09T22:35:32.217Z,13.13
2023-04-09T22:37:34.130Z,12.55
2023-04-09T22:39:36.486Z,12.55
2023-04-09T22:41:38.776Z,14.10
2023-04-09T22:43:40.626Z,13.07
2023-04-09T22:45:42.593Z,14.02
2023-04-09T22:47:44.491Z,13.13
2023-04-09T22:49:46.781Z,12.50
2023-04-09T22:51:48.654Z,13.10
2023-04-09T22:53:50.515Z,13.13
2023-04-09T22:55:54.884Z,12.80
2023-04-09T22:57:58.065Z,12.88
2023-04-09T22:59:59.896Z,11.65
2023-04-09T23:02:01.877Z,13.05
2023-04-09T23:06:06.067Z,12.70
2023-04-09T23:08:07.946Z,12.93
2023-04-09T23:10:14.149Z,13.48
2023-04-09T23:12:16.049Z,13.40
2023-04-09T23:14:17.911Z,12.65
2023-04-09T23:16:20.032Z,15.05
2023-04-09T23:20:26.360Z,15.18
2023-04-09T23:22:28.269Z,16.27
2023-04-09T23:24:30.415Z,15.02
2023-04-09T23:26:32.769Z,15.07
2023-04-09T23:28:34.635Z,14.52
2023-04-09T23:30:37.086Z,14.35
2023-04-09T23:32:38.945Z,14.82
2023-04-09T23:34:40.846Z,14.85
2023-04-09T23:36:42.744Z,14.57
2023-04-09T23:38:47.006Z,14.60
2023-04-09T23:40:49.388Z,13.75
2023-04-09T23:42:51.317Z,14.32
2023-04-09T23:44:53.264Z,14.18
2023-04-09T23:46:55.733Z,14.48
2023-04-09T23:48:57.613Z,15.18
2023-04-09T23:50:59.457Z,14.73
2023-04-09T23:53:03.771Z,15.02
2023-04-09T23:55:09.592Z,13.60
2023-04-09T23:57:11.454Z,14.77
2023-04-09T23:59:13.420Z,15.00
